Time;durP1;ratioP1;P1;durP2;ratioP2;P2;SDS_P1;SDS_P2;PMS_P1;PMS_P2;Temp;Humidity;BMP_temperature;BMP_pressure;BME280_temperature;BME280_humidity;BME280_pressure;Samples;Min_cycle;Max_cycle;Signal;HPM_P1;HPM_P2
2022/06/03 00:00:08;;;;;;;8.55;7.25;;;;;;;11.02;89.47;101767.31;5213780;28;20030;-67
2022/06/03 00:02:58;;;;;;;8.63;7.60;;;;;;;11.08;91.09;101772.25;5204656;28;20034;-67
2022/06/03 00:05:48;;;;;;;10.35;7.15;;;;;;;10.97;90.36;101768.47;5214316;28;20037;-67
2022/06/03 00:08:48;;;;;;;10.13;7.47;;;;;;;10.98;91.02;101767.50;5211656;28;20546;-67
2022/06/03 00:11:37;;;;;;;9.65;7.80;;;;;;;10.97;92.27;101771.13;5204445;28;20037;-67
2022/06/03 00:14:33;;;;;;;9.45;7.40;;;;;;;10.99;89.84;101765.69;5210225;28;20038;-67
2022/06/03 00:17:14;;;;;;;9.55;8.05;;;;;;;10.88;89.56;101769.03;5213469;28;20065;-67
2022/06/03 00:20:02;;;;;;;9.48;7.05;;;;;;;10.94;90.06;101770.47;5208189;28;20034;-67
2022/06/03 00:23:11;;;;;;;9.98;7.30;;;;;;;10.85;88.53;101766.53;5198947;28;20503;-67
2022/06/03 00:26:07;;;;;;;9.57;8.18;;;;;;;10.84;91.11;101772.00;5207841;28;20030;-68
2022/06/03 00:29:05;;;;;;;9.70;7.05;;;;;;;10.78;88.86;101767.91;5201375;28;20030;-67
2022/06/03 00:31:49;;;;;;;11.65;8.55;;;;;;;10.77;92.36;101764.34;5208855;28;20060;-67
2022/06/03 00:34:57;;;;;;;9.77;8.23;;;;;;;10.75;92.67;101765.41;5211854;28;20057;-67
2022/06/03 00:37:41;;;;;;;9.70;8.00;;;;;;;10.64;93.64;101763.41;5204787;28;20092;-67
2022/06/03 00:40:28;;;;;;;9.93;8.23;;;;;;;10.66;93.43;101757.97;5214271;28;20595;-67
2022/06/03 00:43:13;;;;;;;11.43;7.93;;;;;;;10.64;93.68;101759.88;5205350;28;20069;-67
2022/06/03 00:46:02;;;;;;;9.48;7.93;;;;;;;10.65;93.99;101757.13;5214386;28;20057;-67
2022/06/03 00:48:48;;;;;;;8.75;7.85;;;;;;;10.57;94.56;101754.94;5211557;28;20022;-67
2022/06/03 00:51:32;;;;;;;9.98;8.10;;;;;;;10.52;94.78;101762.34;5212036;28;20029;-67
2022/06/03 00:54:26;;;;;;;9.23;7.63;;;;;;;10.51;93.17;101757.16;5218335;28;20021;-67
2022/06/03 00:57:08;;;;;;;9.20;8.23;;;;;;;10.45;94.01;101760.16;5207068;28;20029;-67
2022/06/03 01:00:09;;;;;;;8.77;7.88;;;;;;;10.44;93.71;101761.97;5202568;28;20042;-68
2022/06/03 01:03:02;;;;;;;8.75;7.70;;;;;;;10.33;92.69;101754.63;5204303;28;20033;-67
2022/06/03 01:05:50;;;;;;;10.50;8.85;;;;;;;10.43;95.17;101748.72;5197874;28;20026;-67
2022/06/03 01:08:47;;;;;;;10.02;8.60;;;;;;;10.40;94.50;101755.13;5200120;28;20026;-67
2022/06/03 01:11:53;;;;;;;9.98;8.95;;;;;;;10.43;95.33;101746.06;5205270;28;20037;-67
2022/06/03 01:14:54;;;;;;;10.27;9.18;;;;;;;10.46;94.95;101746.72;5201046;28;20022;-67
2022/06/03 01:17:38;;;;;;;10.13;8.25;;;;;;;10.45;93.86;101747.72;5203108;28;20053;-67
2022/06/03 01:20:34;;;;;;;9.45;8.05;;;;;;;10.41;92.81;101743.47;5211995;28;20369;-68
2022/06/03 01:23:12;;;;;;;10.60;8.68;;;;;;;10.53;95.10;101742.75;5204947;28;20034;-67
2022/06/03 01:25:59;;;;;;;9.65;8.68;;;;;;;10.53;96.06;101736.56;5215750;28;20026;-67
2022/06/03 01:29:06;;;;;;;10.35;9.27;;;;;;;10.55;96.31;101727.50;5212983;28;20036;-67
2022/06/03 01:31:55;;;;;;;11.35;8.48;;;;;;;10.51;96.87;101725.13;5196449;28;20015;-67
2022/06/03 01:35:07;;;;;;;9.80;8.80;;;;;;;10.56;95.86;101720.34;5209569;28;20180;-67
2022/06/03 01:38:02;;;;;;;9.10;7.78;;;;;;;10.49;95.24;101733.22;5210317;28;20038;-67
2022/06/03 01:40:56;;;;;;;9.07;7.93;;;;;;;10.51;93.87;101725.97;5209582;28;20092;-67
2022/06/03 01:43:27;;;;;;;9.50;7.13;;;;;;;10.45;91.46;101715.69;5216935;28;20033;-67
2022/06/03 01:46:28;;;;;;;10.07;8.02;;;;;;;10.45;93.04;101720.16;5215501;28;20044;-67
2022/06/03 01:49:21;;;;;;;10.30;7.80;;;;;;;10.52;95.44;101716.16;5206894;28;20574;-67
2022/06/03 01:52:19;;;;;;;9.80;7.82;;;;;;;10.42;93.41;101713.19;5210156;28;20034;-67
2022/06/03 01:55:24;;;;;;;9.85;8.20;;;;;;;10.43;92.54;101714.91;5214631;28;20290;-68
2022/06/03 01:58:32;;;;;;;11.25;8.32;;;;;;;10.52;95.47;101710.81;5204040;28;20109;-67
2022/06/03 02:01:30;;;;;;;9.55;7.72;;;;;;;10.43;92.13;101706.03;5214469;28;20069;-67
2022/06/03 02:04:10;;;;;;;8.90;8.00;;;;;;;10.35;93.89;101714.53;5197687;28;20037;-68
2022/06/03 02:07:03;;;;;;;9.15;8.25;;;;;;;10.36;96.14;101710.91;5202207;28;20026;-67
2022/06/03 02:09:56;;;;;;;9.57;8.48;;;;;;;10.43;96.58;101703.38;5216528;28;20030;-67
2022/06/03 02:12:36;;;;;;;8.75;7.85;;;;;;;10.36;95.67;101700.25;5209256;28;20029;-67
2022/06/03 02:15:43;;;;;;;9.57;8.45;;;;;;;10.36;93.31;101695.75;5209017;28;20075;-67
2022/06/03 02:18:35;;;;;;;9.57;8.13;;;;;;;10.30;93.16;101689.94;5212506;28;20057;-68
2022/06/03 02:21:36;;;;;;;9.65;8.63;;;;;;;10.30;95.36;101698.81;5212944;28;20053;-68
2022/06/03 02:24:26;;;;;;;10.40;8.43;;;;;;;10.26;95.86;101699.03;5205243;28;20044;-67
2022/06/03 02:27:18;;;;;;;10.00;8.70;;;;;;;10.19;93.86;101696.75;5203458;28;20108;-68
2022/06/03 02:30:27;;;;;;;12.05;9.05;;;;;;;10.13;95.48;101699.81;5202005;28;20084;-68
2022/06/03 02:33:31;;;;;;;9.30;8.32;;;;;;;10.16;95.11;101702.31;5194931;28;20034;-67
2022/06/03 02:36:42;;;;;;;10.35;8.40;;;;;;;10.14;97.44;101690.88;5211046;28;20022;-67
2022/06/03 02:39:34;;;;;;;11.38;8.90;;;;;;;10.13;97.43;101696.28;5198353;28;20037;-68
2022/06/03 02:42:20;;;;;;;8.82;7.93;;;;;;;10.12;94.01;101697.22;5210372;28;20040;-67
2022/06/03 02:44:57;;;;;;;10.77;8.95;;;;;;;10.01;95.15;101681.91;5206776;28;20042;-67
2022/06/03 02:47:46;;;;;;;10.15;8.95;;;;;;;10.09;96.44;101676.94;5210848;28;20105;-68
2022/06/03 02:50:42;;;;;;;10.25;8.80;;;;;;;10.09;95.71;101676.94;5212601;28;20400;-68
2022/06/03 02:54:14;;;;;;;10.32;9.32;;;;;;;10.02;96.99;101679.13;5214813;28;20393;-67
2022/06/03 02:57:19;;;;;;;10.30;8.63;;;;;;;10.05;98.14;101680.75;5178965;28;20133;-67
2022/06/03 02:59:59;;;;;;;10.93;9.52;;;;;;;9.98;98.93;101690.94;5204376;28;20041;-67
2022/06/03 03:03:03;;;;;;;10.88;9.77;;;;;;;10.00;99.15;101681.03;5213732;28;20540;-67
2022/06/03 03:06:06;;;;;;;10.63;9.02;;;;;;;10.01;98.25;101679.25;5197194;28;20022;-67
2022/06/03 03:08:54;;;;;;;12.07;9.77;;;;;;;9.89;98.02;101683.47;5195909;28;20455;-67
2022/06/03 03:11:43;;;;;;;11.07;8.90;;;;;;;9.88;98.21;101688.94;5198540;28;20034;-68
2022/06/03 03:14:14;;;;;;;11.45;9.70;;;;;;;9.80;99.06;101687.56;5200074;28;20030;-67
2022/06/03 03:17:15;;;;;;;12.23;10.23;;;;;;;9.94;100.00;101681.41;5205023;28;20103;-67
2022/06/03 03:20:23;;;;;;;11.23;10.07;;;;;;;9.85;98.50;101668.63;5205812;28;20035;-67
2022/06/03 03:23:37;;;;;;;12.30;9.82;;;;;;;9.91;97.83;101670.91;5209314;28;20041;-67
2022/06/03 03:26:32;;;;;;;10.45;9.45;;;;;;;9.90;99.71;101673.69;5205878;28;20034;-67
2022/06/03 03:29:21;;;;;;;11.20;10.10;;;;;;;9.82;98.87;101675.00;5198633;28;20490;-67
2022/06/03 03:31:58;;;;;;;12.95;10.55;;;;;;;9.87;99.32;101656.06;5214954;28;20029;-68
2022/06/03 03:34:57;;;;;;;11.32;9.98;;;;;;;9.90;98.76;101658.56;5213893;28;20488;-67
2022/06/03 03:37:43;;;;;;;11.10;9.90;;;;;;;9.93;98.02;101661.03;5209887;28;20583;-68
2022/06/03 03:40:51;;;;;;;11.00;9.90;;;;;;;9.88;98.13;101655.13;5206294;28;20384;-67
2022/06/03 03:43:47;;;;;;;12.73;10.88;;;;;;;9.88;100.00;101654.28;5206566;28;20073;-67
2022/06/03 03:46:45;;;;;;;11.45;10.35;;;;;;;9.81;100.00;101661.75;5204042;28;20104;-67
2022/06/03 03:49:58;;;;;;;11.35;10.15;;;;;;;9.76;98.33;101662.06;5212517;28;20427;-67
2022/06/03 03:52:45;;;;;;;12.30;10.60;;;;;;;9.81;100.00;101662.63;5207150;28;20037;-67
2022/06/03 03:55:45;;;;;;;14.15;11.20;;;;;;;9.75;100.00;101659.47;5207311;28;20375;-68
2022/06/03 03:58:54;;;;;;;14.40;10.98;;;;;;;9.74;99.22;101660.41;5208689;28;20109;-67
2022/06/03 04:02:08;;;;;;;11.57;10.32;;;;;;;9.78;98.84;101657.50;5212849;28;20041;-67
2022/06/03 04:05:02;;;;;;;12.98;11.00;;;;;;;9.75;100.00;101654.16;5199109;28;20084;-67
2022/06/03 04:08:01;;;;;;;11.85;10.52;;;;;;;9.74;98.93;101649.75;5208145;28;20029;-67
2022/06/03 04:11:01;;;;;;;11.63;9.85;;;;;;;9.75;98.43;101651.47;5201538;28;20022;-67
2022/06/03 04:13:49;;;;;;;12.98;10.77;;;;;;;9.72;98.98;101649.00;5205324;28;20108;-68
2022/06/03 04:16:43;;;;;;;11.13;9.95;;;;;;;9.84;99.92;101645.59;5218255;28;20062;-68
2022/06/03 04:20:00;;;;;;;12.00;9.90;;;;;;;9.83;98.95;101649.19;5218003;28;20456;-67
2022/06/03 04:23:02;;;;;;;12.32;10.98;;;;;;;9.82;100.00;101648.34;5207420;28;20030;-67
2022/06/03 04:25:52;;;;;;;13.10;11.00;;;;;;;9.84;100.00;101645.59;5208644;28;20049;-67
2022/06/03 04:28:42;;;;;;;14.00;11.10;;;;;;;9.88;98.68;101641.78;5213615;28;20081;-67
2022/06/03 04:31:43;;;;;;;12.18;10.70;;;;;;;9.93;99.48;101642.38;5212081;28;20022;-67
2022/06/03 04:34:36;;;;;;;12.57;10.93;;;;;;;9.90;99.96;101631.91;5206389;28;20042;-67
2022/06/03 04:37:45;;;;;;;12.02;10.48;;;;;;;9.94;100.00;101638.75;5207259;28;20548;-68
2022/06/03 04:40:54;;;;;;;12.52;11.20;;;;;;;10.04;100.00;101652.38;5208996;28;20030;-67
2022/06/03 04:43:41;;;;;;;12.02;10.73;;;;;;;10.12;100.00;101657.22;5209165;28;20037;-67
2022/06/03 04:46:31;;;;;;;13.75;10.77;;;;;;;10.12;98.61;101651.91;5207642;28;20029;-67
2022/06/03 04:49:23;;;;;;;12.93;10.82;;;;;;;10.16;99.42;101658.75;5217159;28;20028;-67
2022/06/03 04:52:32;;;;;;;12.00;10.80;;;;;;;10.16;100.00;101659.63;5217038;28;20042;-67
2022/06/03 04:55:41;;;;;;;13.27;11.98;;;;;;;10.24;100.00;101671.63;5203055;28;20061;-67
2022/06/03 04:58:49;;;;;;;13.43;11.43;;;;;;;10.22;99.03;101663.72;5208864;28;20520;-68
2022/06/03 05:01:54;;;;;;;11.80;10.50;;;;;;;10.26;97.41;101665.25;5207922;28;20457;-67
2022/06/03 05:05:02;;;;;;;13.93;12.10;;;;;;;10.29;100.00;101654.38;5199593;28;20022;-67
2022/06/03 05:08:11;;;;;;;13.35;11.45;;;;;;;10.33;99.09;101655.94;5214903;28;20766;-68
2022/06/03 05:11:10;;;;;;;12.27;11.00;;;;;;;10.37;99.59;101664.59;5203531;28;20026;-67
2022/06/03 05:14:17;;;;;;;12.15;10.70;;;;;;;10.44;97.86;101659.75;5203786;28;20061;-68
2022/06/03 05:17:26;;;;;;;14.48;10.70;;;;;;;10.49;98.44;101662.97;5200316;28;20065;-68
2022/06/03 05:20:03;;;;;;;12.73;10.50;;;;;;;10.52;96.95;101652.97;5210428;28;20069;-68
2022/06/03 05:23:07;;;;;;;13.70;10.98;;;;;;;10.58;98.06;101660.59;5200854;28;20208;-67
2022/06/03 05:25:51;;;;;;;12.25;10.93;;;;;;;10.65;99.85;101654.88;5205930;28;20140;-68
2022/06/03 05:29:04;;;;;;;12.93;10.93;;;;;;;10.66;96.83;101643.22;5215077;28;20500;-68
2022/06/03 05:31:50;;;;;;;11.55;10.32;;;;;;;10.81;95.68;101638.72;5212755;28;20143;-67
2022/06/03 05:34:40;;;;;;;11.82;10.63;;;;;;;10.79;95.38;101642.31;5207549;28;20066;-67
2022/06/03 05:37:27;;;;;;;12.23;10.88;;;;;;;10.85;97.95;101653.56;5216468;28;20121;-67
2022/06/03 05:40:15;;;;;;;12.05;10.63;;;;;;;10.89;99.11;101642.63;5201801;28;20037;-68
2022/06/03 05:42:59;;;;;;;12.48;11.18;;;;;;;10.95;97.82;101644.03;5213084;28;20034;-68
2022/06/03 05:45:39;;;;;;;13.70;10.80;;;;;;;11.01;97.39;101646.28;5210867;28;20029;-67
2022/06/03 05:48:32;;;;;;;11.98;10.52;;;;;;;11.04;96.75;101640.72;5202029;28;20036;-68
2022/06/03 05:51:34;;;;;;;13.23;10.63;;;;;;;11.19;94.48;101637.03;5214636;28;20034;-68
2022/06/03 05:54:20;;;;;;;11.68;9.90;;;;;;;11.26;94.05;101644.66;5213257;28;20045;-68
2022/06/03 05:57:12;;;;;;;11.52;9.77;;;;;;;11.37;93.17;101639.44;5214435;28;20420;-67
2022/06/03 05:59:46;;;;;;;11.68;9.80;;;;;;;11.40;94.20;101641.06;5205199;28;20105;-67
2022/06/03 06:03:00;;;;;;;11.13;9.90;;;;;;;11.48;92.95;101644.91;5211453;28;20089;-68
2022/06/03 06:05:46;;;;;;;11.20;10.00;;;;;;;11.52;94.07;101648.25;5209779;28;20041;-68
2022/06/03 06:08:43;;;;;;;12.20;10.48;;;;;;;11.62;92.45;101644.00;5202695;28;20038;-68
2022/06/03 06:11:30;;;;;;;11.48;10.27;;;;;;;11.64;93.13;101644.75;5216491;28;20036;-68
2022/06/03 06:14:13;;;;;;;12.40;10.10;;;;;;;11.76;93.84;101646.56;5215801;28;20798;-69
2022/06/03 06:16:46;;;;;;;11.38;10.27;;;;;;;11.87;93.50;101643.19;5212286;28;20488;-68
2022/06/03 06:19:33;;;;;;;13.20;10.70;;;;;;;12.03;92.09;101642.16;5206322;28;20468;-68
2022/06/03 06:22:17;;;;;;;12.15;10.00;;;;;;;12.08;92.79;101654.22;5204676;28;20440;-68
2022/06/03 06:25:07;;;;;;;12.37;10.30;;;;;;;12.15;92.93;101652.81;5202666;28;20044;-68
2022/06/03 06:27:47;;;;;;;10.77;9.35;;;;;;;12.42;89.84;101651.81;5215308;28;20518;-68
2022/06/03 06:30:39;;;;;;;14.35;10.00;;;;;;;12.48;90.52;101653.22;5215690;28;20030;-68
2022/06/03 06:33:55;;;;;;;12.27;11.02;;;;;;;12.66;90.88;101640.34;5213757;28;20496;-68
2022/06/03 06:36:45;;;;;;;12.02;9.57;;;;;;;12.88;90.16;101650.31;5199519;28;20481;-68
2022/06/03 06:39:46;;;;;;;10.93;9.25;;;;;;;13.16;87.27;101651.81;5212951;28;20451;-68
2022/06/03 06:42:45;;;;;;;12.30;8.48;;;;;;;13.47;85.61;101637.00;5202628;28;20065;-68
2022/06/03 06:45:44;;;;;;;10.88;7.30;;;;;;;13.63;83.57;101642.03;5216806;28;20048;-68
2022/06/03 06:48:40;;;;;;;8.25;6.68;;;;;;;13.77;84.16;101649.03;5208601;28;20030;-68
2022/06/03 06:51:30;;;;;;;7.28;6.40;;;;;;;13.82;83.88;101637.94;5210810;28;20056;-68
2022/06/03 06:54:16;;;;;;;11.55;7.57;;;;;;;14.07;81.69;101647.59;5213772;28;20030;-68
2022/06/03 06:56:55;;;;;;;10.20;7.32;;;;;;;14.23;80.77;101650.81;5214832;28;20046;-69
2022/06/03 06:59:37;;;;;;;9.70;8.13;;;;;;;14.25;81.36;101642.63;5210668;28;20034;-68
2022/06/03 07:02:25;;;;;;;8.90;8.00;;;;;;;14.41;81.60;101647.63;5206539;28;20054;-68
2022/06/03 07:05:14;;;;;;;10.05;8.05;;;;;;;14.54;80.31;101648.34;5213136;28;20022;-68
2022/06/03 07:08:00;;;;;;;9.38;7.28;;;;;;;14.68;80.68;101647.25;5205812;28;20029;-68
2022/06/03 07:10:50;;;;;;;10.35;8.18;;;;;;;14.92;78.14;101644.41;5213056;28;20025;-68
2022/06/03 07:13:52;;;;;;;9.65;7.20;;;;;;;15.14;78.05;101642.63;5200666;28;20033;-68
2022/06/03 07:19:55;;;;;;;7.57;6.45;;;;;;;15.31;75.44;101642.06;5204971;28;20041;-68
2022/06/03 07:22:41;;;;;;;7.43;6.53;;;;;;;15.50;74.64;101633.31;5196863;28;20041;-68
2022/06/03 07:25:18;;;;;;;9.98;7.20;;;;;;;15.62;75.69;101628.72;5214499;28;20025;-68
2022/06/03 07:28:02;;;;;;;9.15;7.05;;;;;;;15.73;73.02;101627.81;5214021;28;20034;-68
2022/06/03 07:30:42;;;;;;;9.10;6.95;;;;;;;15.76;72.78;101625.75;5202115;28;20022;-69
2022/06/03 07:33:21;;;;;;;10.25;7.25;;;;;;;15.89;72.51;101622.81;5207169;28;20421;-68
2022/06/03 07:36:10;;;;;;;10.50;7.53;;;;;;;15.92;72.84;101625.25;5198848;28;20373;-69
2022/06/03 07:38:53;;;;;;;7.60;6.80;;;;;;;15.92;72.81;101627.94;5207170;28;20024;-68
2022/06/03 07:41:33;;;;;;;8.63;7.25;;;;;;;16.20;71.80;101628.22;5206654;28;20471;-69
2022/06/03 07:44:13;;;;;;;9.32;7.30;;;;;;;16.27;70.27;101624.00;5214969;28;20076;-68
2022/06/03 07:47:00;;;;;;;10.45;8.63;;;;;;;16.29;71.53;101631.94;5201728;28;20642;-68
2022/06/03 07:49:38;;;;;;;11.73;8.90;;;;;;;16.53;69.76;101627.09;5203098;28;20380;-68
2022/06/03 07:52:25;;;;;;;8.80;7.85;;;;;;;16.60;69.65;101624.69;5212320;28;20105;-68
2022/06/03 07:54:56;;;;;;;10.00;7.93;;;;;;;16.67;69.66;101628.53;5212550;28;20033;-68
2022/06/03 07:57:29;;;;;;;10.38;7.75;;;;;;;16.74;67.40;101631.50;5214210;28;20040;-68
2022/06/03 08:00:05;;;;;;;10.38;7.90;;;;;;;16.88;66.73;101636.56;5210222;28;20038;-68
2022/06/03 08:02:37;;;;;;;9.50;7.80;;;;;;;17.09;67.24;101627.50;5202867;28;20041;-69
2022/06/03 08:05:18;;;;;;;11.20;8.80;;;;;;;17.23;68.24;101624.38;5204611;28;20372;-69
2022/06/03 08:10:56;;;;;;;10.38;8.48;;;;;;;17.39;66.28;101613.88;5207995;28;20034;-68
2022/06/03 08:13:49;;;;;;;9.45;8.45;;;;;;;17.48;66.73;101612.16;5199841;28;20054;-68
2022/06/03 08:16:42;;;;;;;10.05;8.55;;;;;;;17.53;66.34;101595.53;5204850;28;20176;-68
2022/06/03 08:19:16;;;;;;;10.20;8.07;;;;;;;17.71;66.69;101587.53;5203478;28;20033;-69
2022/06/03 08:21:57;;;;;;;10.25;9.25;;;;;;;17.96;66.97;101599.56;5212908;28;20092;-68
2022/06/03 08:24:34;;;;;;;8.98;8.07;;;;;;;18.04;64.26;101586.19;5203382;28;20370;-68
2022/06/03 08:27:11;;;;;;;9.48;7.45;;;;;;;18.16;64.51;101589.53;5207333;28;20026;-69
2022/06/03 08:29:58;;;;;;;10.63;8.77;;;;;;;18.05;66.53;101592.44;5208709;28;20223;-69
2022/06/03 08:32:39;;;;;;;9.43;8.50;;;;;;;18.05;66.02;101597.84;5204976;28;20033;-69
2022/06/03 08:35:16;;;;;;;10.35;8.85;;;;;;;18.28;65.02;101588.34;5212771;28;20034;-69
2022/06/03 08:37:52;;;;;;;10.85;9.25;;;;;;;18.32;65.55;101594.31;5212303;28;20812;-69
2022/06/03 08:40:46;;;;;;;9.38;8.48;;;;;;;18.49;65.00;101604.31;5210508;28;20045;-69
2022/06/03 08:43:29;;;;;;;10.07;9.05;;;;;;;18.58;65.10;101595.31;5207572;28;20030;-68
2022/06/03 08:46:14;;;;;;;9.68;8.68;;;;;;;18.93;63.93;101585.56;5212197;28;20466;-69
2022/06/03 08:48:50;;;;;;;11.13;8.70;;;;;;;18.87;63.42;101597.00;5214805;28;20034;-69
2022/06/03 08:51:33;;;;;;;9.70;8.20;;;;;;;19.08;62.31;101595.81;5216477;28;20021;-68
2022/06/03 08:54:20;;;;;;;10.40;8.48;;;;;;;19.23;61.45;101596.97;5204550;28;20487;-68
2022/06/03 08:56:55;;;;;;;10.07;8.68;;;;;;;19.35;61.93;101609.28;5211712;28;20089;-68
2022/06/03 08:59:56;;;;;;;9.52;8.38;;;;;;;19.49;62.58;101597.03;5208309;28;20029;-68
2022/06/03 09:02:37;;;;;;;8.68;7.57;;;;;;;19.65;59.74;101596.28;5206027;28;20064;-68
2022/06/03 09:05:16;;;;;;;9.43;8.25;;;;;;;19.95;59.07;101594.16;5214717;28;20502;-68
2022/06/03 09:07:57;;;;;;;9.07;7.90;;;;;;;19.90;58.60;101588.34;5213735;28;20523;-68
2022/06/03 09:10:40;;;;;;;10.48;7.82;;;;;;;20.17;58.69;101593.59;5206028;28;20025;-69
2022/06/03 09:13:41;;;;;;;9.10;7.28;;;;;;;20.40;59.16;101590.28;5207387;28;20022;-69
2022/06/03 09:16:16;;;;;;;27.00;11.63;;;;;;;20.36;56.03;101597.06;5217474;28;20068;-69
2022/06/03 09:19:14;;;;;;;12.35;8.88;;;;;;;20.38;57.93;101592.31;5212799;28;20041;-69
2022/06/03 09:21:51;;;;;;;8.63;7.50;;;;;;;20.33;54.60;101595.53;5204993;28;20099;-69
2022/06/03 09:24:26;;;;;;;8.20;6.75;;;;;;;20.45;55.19;101595.22;5217141;28;20030;-69
2022/06/03 09:27:02;;;;;;;8.55;7.70;;;;;;;20.44;54.90;101594.38;5216434;28;20109;-69
2022/06/03 09:29:34;;;;;;;8.93;7.32;;;;;;;20.54;53.19;101588.84;5212826;28;20469;-68
2022/06/03 09:32:08;;;;;;;7.60;6.55;;;;;;;20.59;54.29;101591.88;5199045;28;20066;-69
2022/06/03 09:34:42;;;;;;;;;;;;;;;20.62;57.83;101591.59;5202569;28;20444;-69
2022/06/03 09:37:21;;;;;;;7.97;6.32;;;;;;;20.84;53.77;101586.53;5208246;28;20022;-69
2022/06/03 09:39:55;;;;;;;10.10;7.88;;;;;;;21.05;51.99;101580.63;5207356;28;20076;-69
2022/06/03 09:42:29;;;;;;;10.25;6.40;;;;;;;20.93;52.90;101585.56;5208452;28;20071;-69
2022/06/03 09:45:04;;;;;;;8.77;4.97;;;;;;;21.13;50.95;101578.78;5202414;28;20429;-69
2022/06/03 09:47:36;;;;;;;5.55;5.00;;;;;;;21.21;50.44;101577.06;5208446;28;20088;-69
2022/06/03 09:50:08;;;;;;;6.97;5.68;;;;;;;21.16;50.71;101572.16;5205600;28;20030;-69
2022/06/03 09:52:40;;;;;;;6.55;4.97;;;;;;;21.11;49.71;101585.38;5211486;28;20092;-69
2022/06/03 09:55:36;;;;;;;6.20;5.00;;;;;;;21.22;51.51;101571.47;5213427;28;20034;-69
2022/06/03 09:58:15;;;;;;;7.05;4.97;;;;;;;21.34;48.59;101572.84;5212741;28;20018;-69
2022/06/03 10:00:49;;;;;;;5.18;4.22;;;;;;;21.40;48.98;101568.63;5206749;28;20472;-69
2022/06/03 10:03:21;;;;;;;7.00;5.18;;;;;;;21.41;47.18;101569.44;5214899;28;20146;-69
2022/06/03 10:05:56;;;;;;;7.00;4.47;;;;;;;21.41;48.06;101561.31;5207298;28;20041;-69
2022/06/03 10:14:11;;;;;;;6.30;3.53;;;;;;;21.59;47.33;101559.25;5200135;28;20485;-69
2022/06/03 10:16:42;;;;;;;4.28;2.90;;;;;;;21.80;45.23;101560.56;5216100;28;20041;-69
2022/06/03 10:19:13;;;;;;;4.28;2.70;;;;;;;21.81;47.30;101556.84;5212239;28;20033;-69
2022/06/03 10:21:53;;;;;;;5.15;3.38;;;;;;;22.01;45.63;101563.56;5215635;28;20133;-69
2022/06/03 10:24:32;;;;;;;5.75;2.65;;;;;;;21.93;47.03;101550.00;5216444;28;20034;-69
2022/06/03 10:27:06;;;;;;;4.43;3.08;;;;;;;21.98;45.43;101549.50;5198063;28;20361;-68
2022/06/03 10:29:49;;;;;;;3.65;2.42;;;;;;;22.04;46.00;101543.34;5214596;28;20026;-69
2022/06/03 10:32:22;;;;;;;3.70;2.28;;;;;;;22.09;43.67;101536.38;5203972;28;20041;-69
2022/06/03 10:35:06;;;;;;;4.72;2.28;;;;;;;22.09;43.33;101539.09;5212518;28;20021;-69
2022/06/03 10:37:47;;;;;;;3.65;2.65;;;;;;;22.10;44.54;101529.91;5213211;28;20056;-69
2022/06/03 10:40:20;;;;;;;4.47;2.25;;;;;;;22.18;45.20;101530.91;5208441;28;20034;-69
2022/06/03 10:42:55;;;;;;;6.35;2.70;;;;;;;22.13;44.38;101543.16;5201019;28;20384;-70
2022/06/03 10:45:29;;;;;;;3.65;2.42;;;;;;;22.27;44.41;101538.88;5204758;28;20030;-69
2022/06/03 10:48:00;;;;;;;3.85;2.55;;;;;;;22.36;41.15;101536.97;5214213;28;20036;-69
2022/06/03 10:50:35;;;;;;;3.17;2.17;;;;;;;22.34;42.30;101541.72;5210558;28;20014;-70
2022/06/03 11:02:15;;;;;;;3.00;1.45;;;;;;;22.52;37.85;101536.84;5214227;28;20034;-69
2022/06/03 11:04:47;;;;;;;4.35;1.40;;;;;;;22.71;39.99;101538.25;5214527;28;20420;-69
2022/06/03 11:07:30;;;;;;;3.63;1.40;;;;;;;22.73;40.82;101524.47;5199237;28;20033;-70
2022/06/03 11:10:06;;;;;;;2.10;1.38;;;;;;;22.92;40.23;101527.75;5208771;28;20144;-70
2022/06/03 11:12:38;;;;;;;3.70;1.33;;;;;;;22.94;40.52;101520.25;5208688;28;20038;-69
2022/06/03 11:15:31;;;;;;;4.15;1.23;;;;;;;23.06;40.12;101522.38;5204582;28;20079;-70
2022/06/03 11:18:35;;;;;;;7.05;1.83;;;;;;;23.00;38.63;101519.53;5199472;28;20104;-69
2022/06/03 11:21:35;;;;;;;2.78;1.27;;;;;;;23.03;41.37;101516.44;5207717;28;20329;-70
2022/06/03 11:24:06;;;;;;;3.72;1.20;;;;;;;23.19;37.36;101513.59;5214331;28;20041;-69
2022/06/03 11:26:45;;;;;;;2.97;1.40;;;;;;;23.16;37.17;101511.22;5200732;28;20037;-70
2022/06/03 11:29:38;;;;;;;2.58;1.40;;;;;;;23.22;38.77;101513.22;5199970;28;20088;-70
2022/06/03 11:32:13;;;;;;;2.30;1.25;;;;;;;23.08;38.72;101506.69;5216096;28;20105;-69
2022/06/03 11:34:54;;;;;;;3.80;1.60;;;;;;;23.09;39.99;101508.41;5210939;28;20030;-69
2022/06/03 11:37:38;;;;;;;2.42;1.38;;;;;;;23.35;39.26;101507.13;5207598;28;20433;-69
2022/06/03 11:40:16;;;;;;;;;;;;;;;23.42;42.28;101508.09;5211883;28;20026;-69
2022/06/03 11:42:55;;;;;;;2.80;1.42;;;;;;;23.32;38.95;101506.66;5212182;28;19956;-69
2022/06/03 11:45:46;;;;;;;4.90;1.77;;;;;;;23.39;41.41;101507.59;5194497;28;20022;-69
2022/06/03 11:48:30;;;;;;;3.00;1.80;;;;;;;23.51;36.40;101503.41;5195279;28;20045;-69
2022/06/03 11:51:02;;;;;;;3.75;2.00;;;;;;;23.38;38.99;101506.78;5208155;28;20052;-69
2022/06/03 11:53:39;;;;;;;3.63;1.52;;;;;;;23.52;37.84;101509.69;5210248;28;20022;-69
2022/06/03 11:56:11;;;;;;;2.90;1.85;;;;;;;23.43;37.47;101517.09;5212053;28;20028;-69
2022/06/03 11:58:53;;;;;;;2.83;1.65;;;;;;;23.54;37.90;101513.91;5202031;28;20062;-69
2022/06/03 12:01:49;;;;;;;3.40;1.67;;;;;;;23.58;39.65;101515.22;5212462;28;20030;-69
2022/06/03 12:04:23;;;;;;;3.97;1.80;;;;;;;23.48;37.77;101511.94;5205524;28;20081;-69
2022/06/03 12:07:12;;;;;;;;;;;;;;;23.69;40.70;101516.66;5203676;28;20034;-69
2022/06/03 12:10:00;;;;;;;3.55;1.67;;;;;;;23.82;40.75;101510.59;5196545;28;19960;-69
2022/06/03 12:15:57;;;;;;;4.10;2.08;;;;;;;23.84;37.85;101501.19;5210475;28;20113;-69
2022/06/03 12:18:32;;;;;;;3.78;1.80;;;;;;;24.15;36.25;101499.25;5201281;28;20045;-70
2022/06/03 12:21:34;;;;;;;3.28;2.10;;;;;;;24.10;38.19;101494.38;5213905;28;20392;-69
2022/06/03 12:24:38;;;;;;;3.75;1.48;;;;;;;24.30;37.97;101494.63;5213897;28;20088;-71
2022/06/03 12:27:18;;;;;;;6.75;1.50;;;;;;;24.41;35.56;101487.78;5201703;28;20026;-69
2022/06/03 12:30:34;;;;;;;24.08;2.83;;;;;;;24.33;37.89;101485.19;5213861;28;20029;-70
2022/06/03 12:33:19;;;;;;;4.10;2.17;;;;;;;24.23;37.07;101482.78;5214690;28;20029;-70
2022/06/03 12:35:52;;;;;;;16.85;2.97;;;;;;;24.48;35.58;101482.41;5208798;28;20535;-70
2022/06/03 12:38:30;;;;;;;4.35;2.15;;;;;;;24.59;37.37;101481.94;5209499;28;20484;-70
2022/06/03 12:41:05;;;;;;;3.47;1.92;;;;;;;24.77;38.09;101484.19;5227528;28;20076;-70
2022/06/03 12:43:45;;;;;;;3.70;2.13;;;;;;;24.59;37.58;101485.50;5206584;28;20079;-69
2022/06/03 12:46:43;;;;;;;4.07;1.73;;;;;;;24.98;36.46;101480.59;5214615;28;20026;-70
2022/06/03 12:49:23;;;;;;;2.78;1.50;;;;;;;24.95;33.09;101470.94;5205269;28;20034;-70
2022/06/03 12:51:59;;;;;;;4.57;1.67;;;;;;;24.63;31.36;101480.50;5216489;28;20068;-69
2022/06/03 12:54:32;;;;;;;3.83;1.80;;;;;;;24.50;35.19;101472.16;5210390;28;20080;-69
2022/06/03 12:57:15;;;;;;;3.38;1.73;;;;;;;24.60;34.83;101473.56;5218135;28;20112;-69
2022/06/03 13:00:02;;;;;;;4.07;1.70;;;;;;;24.80;35.66;101475.63;5212764;28;20042;-69
2022/06/03 13:02:48;;;;;;;3.13;1.73;;;;;;;24.81;34.00;101461.81;5215679;28;20083;-69
2022/06/03 13:05:34;;;;;;;3.08;1.30;;;;;;;24.94;34.28;101460.22;5213349;28;20048;-69
2022/06/03 13:08:27;;;;;;;3.40;1.80;;;;;;;24.77;31.97;101457.75;5209522;28;20396;-69
2022/06/03 13:11:08;;;;;;;3.00;1.40;;;;;;;24.69;32.59;101448.88;5209162;28;20034;-69
2022/06/03 13:13:50;;;;;;;3.10;1.40;;;;;;;24.95;34.85;101456.41;5216988;28;20487;-69
2022/06/03 13:16:36;;;;;;;2.40;1.42;;;;;;;24.78;36.54;101464.06;5213998;28;20129;-69
2022/06/03 13:19:17;;;;;;;3.40;2.05;;;;;;;24.67;33.75;101456.41;5212971;28;20504;-69
2022/06/03 13:22:00;;;;;;;4.70;1.60;;;;;;;24.89;32.26;101454.50;5215031;28;20143;-69